createdAt,value
2019-03-05T00:02:13.308Z,3.50
2019-03-05T00:04:46.474Z,3.50
2019-03-05T00:07:17.008Z,3.60
2019-03-05T00:09:48.614Z,3.60
2019-03-05T00:12:23.322Z,3.60
2019-03-05T00:15:01.671Z,3.60
2019-03-05T00:17:37.483Z,3.70
2019-03-05T00:20:13.309Z,3.60
2019-03-05T00:22:44.303Z,3.60
2019-03-05T00:25:17.668Z,3.60
2019-03-05T00:27:56.495Z,3.50
2019-03-05T00:31:01.896Z,3.60
2019-03-05T00:33:56.184Z,3.70
2019-03-05T00:36:50.883Z,3.60
2019-03-05T00:39:56.740Z,3.70
2019-03-05T00:43:08.302Z,3.70
2019-03-05T00:46:04.092Z,3.70
2019-03-05T00:49:32.119Z,3.60
2019-03-05T00:53:06.430Z,3.60
2019-03-05T00:56:20.286Z,3.60
2019-03-05T00:59:18.706Z,3.60
2019-03-05T01:02:01.363Z,3.60
2019-03-05T01:04:56.979Z,3.70
2019-03-05T01:07:30.503Z,3.80
2019-03-05T01:10:01.905Z,3.90
2019-03-05T01:12:32.947Z,3.90
2019-03-05T01:15:03.262Z,3.90
2019-03-05T01:17:33.399Z,3.80
2019-03-05T01:20:03.759Z,3.80
2019-03-05T01:22:33.983Z,3.80
2019-03-05T01:25:06.473Z,3.80
2019-03-05T01:27:36.653Z,3.80
2019-03-05T01:30:07.863Z,3.80
2019-03-05T01:32:44.267Z,3.80
2019-03-05T01:35:23.491Z,3.90
2019-03-05T01:37:53.703Z,3.90
2019-03-05T01:40:45.667Z,3.90
2019-03-05T01:43:16.061Z,3.80
2019-03-05T01:45:46.213Z,3.90
2019-03-05T01:48:16.329Z,4.00
2019-03-05T01:50:46.603Z,4.00
2019-03-05T01:53:17.468Z,4.10
2019-03-05T01:55:47.627Z,4.20
2019-03-05T01:58:17.751Z,4.30
2019-03-05T02:00:47.905Z,4.20
2019-03-05T02:03:18.052Z,4.20
2019-03-05T02:05:48.588Z,4.10
2019-03-05T02:08:21.188Z,4.10
2019-03-05T02:10:51.362Z,4.00
2019-03-05T02:13:21.741Z,4.00
2019-03-05T02:15:53.989Z,4.00
2019-03-05T02:18:26.570Z,3.90
2019-03-05T02:20:56.774Z,3.90
2019-03-05T02:24:07.208Z,3.90
2019-03-05T02:27:36.333Z,3.90
2019-03-05T02:30:25.238Z,3.80
2019-03-05T02:33:27.808Z,3.80
2019-03-05T02:36:47.891Z,3.80
2019-03-05T02:39:46.218Z,3.70
2019-03-05T02:42:41.636Z,3.70
2019-03-05T02:46:11.095Z,3.60
2019-03-05T02:49:30.991Z,3.60
2019-03-05T02:52:44.591Z,3.60
2019-03-05T02:55:50.424Z,3.50
2019-03-05T02:58:18.922Z,3.50
2019-03-05T03:01:12.590Z,3.50
2019-03-05T03:03:46.428Z,3.60
2019-03-05T03:06:23.510Z,3.70
2019-03-05T03:09:16.032Z,3.70
2019-03-05T03:11:46.233Z,3.70
2019-03-05T03:14:16.381Z,3.70
2019-03-05T03:16:48.160Z,3.70
2019-03-05T03:19:19.795Z,3.70
2019-03-05T03:21:50.100Z,3.80
2019-03-05T03:24:20.355Z,3.80
2019-03-05T03:26:50.514Z,3.80
2019-03-05T03:29:20.748Z,3.80
2019-03-05T03:31:50.888Z,4.00
2019-03-05T03:34:21.024Z,4.00
2019-03-05T03:36:51.227Z,4.00
2019-03-05T03:39:21.381Z,4.00
2019-03-05T03:41:53.854Z,4.10
2019-03-05T03:44:24.048Z,4.10
2019-03-05T03:46:54.258Z,4.10
2019-03-05T03:49:26.030Z,4.00
2019-03-05T03:51:56.499Z,4.00
2019-03-05T03:54:27.085Z,3.90
2019-03-05T03:56:57.234Z,3.80
2019-03-05T03:59:27.468Z,3.80
2019-03-05T04:01:59.609Z,3.80
2019-03-05T04:04:29.798Z,3.80
2019-03-05T04:06:59.981Z,3.90
2019-03-05T04:09:32.158Z,3.90
2019-03-05T04:12:04.521Z,3.80
2019-03-05T04:14:34.667Z,3.80
2019-03-05T04:17:08.351Z,3.70
2019-03-05T04:19:37.085Z,3.80
2019-03-05T04:22:09.422Z,3.80
2019-03-05T04:24:39.558Z,3.70
2019-03-05T04:27:09.764Z,3.70
2019-03-05T04:29:39.889Z,3.70
2019-03-05T04:32:10.176Z,3.70
2019-03-05T04:34:41.883Z,3.70
2019-03-05T04:37:12.179Z,3.60
2019-03-05T04:39:42.306Z,3.80
2019-03-05T04:42:12.426Z,3.80
2019-03-05T04:44:47.864Z,3.70
2019-03-05T04:47:18.381Z,3.70
2019-03-05T04:50:10.519Z,3.70
2019-03-05T04:52:40.792Z,3.60
2019-03-05T04:55:10.934Z,3.60
2019-03-05T04:57:42.400Z,3.70
2019-03-05T05:00:14.900Z,3.70
2019-03-05T05:02:46.291Z,3.60
2019-03-05T05:05:17.601Z,3.60
2019-03-05T05:07:49.135Z,3.60
2019-03-05T05:10:19.256Z,3.50
2019-03-05T05:12:49.429Z,3.40
2019-03-05T05:15:30.792Z,3.40
2019-03-05T05:18:00.938Z,3.40
2019-03-05T05:20:31.039Z,3.30
2019-03-05T05:23:01.129Z,3.40
2019-03-05T05:25:36.271Z,3.40
2019-03-05T05:28:08.651Z,3.30
2019-03-05T05:30:40.937Z,3.30
2019-03-05T05:33:15.041Z,3.30
2019-03-05T05:35:45.192Z,3.20
2019-03-05T05:38:15.367Z,3.20
2019-03-05T05:40:46.547Z,3.20
2019-03-05T05:43:29.431Z,3.20
2019-03-05T05:45:59.561Z,3.20
2019-03-05T05:49:03.101Z,3.20
2019-03-05T05:51:33.748Z,3.20
2019-03-05T05:54:04.147Z,3.10
2019-03-05T05:56:36.103Z,3.00
2019-03-05T05:59:06.242Z,3.00
2019-03-05T06:01:36.452Z,3.00
2019-03-05T06:04:06.591Z,3.00
2019-03-05T06:06:36.749Z,3.00
2019-03-05T06:09:08.055Z,3.10
2019-03-05T06:11:38.241Z,3.10
2019-03-05T06:14:08.641Z,3.10
2019-03-05T06:16:38.832Z,3.10
2019-03-05T06:19:08.987Z,3.10
2019-03-05T06:21:39.284Z,3.10
2019-03-05T06:24:09.485Z,3.20
2019-03-05T06:26:41.338Z,3.20
2019-03-05T06:29:11.535Z,3.30
2019-03-05T06:31:41.716Z,3.40
2019-03-05T06:34:11.926Z,3.50
2019-03-05T06:36:53.331Z,3.60
2019-03-05T06:39:23.496Z,3.60
2019-03-05T06:41:54.626Z,3.80
2019-03-05T06:44:28.313Z,4.00
2019-03-05T06:46:58.532Z,4.10
2019-03-05T06:49:29.565Z,4.30
2019-03-05T06:51:59.739Z,4.60
2019-03-05T06:54:29.919Z,4.60
2019-03-05T06:57:00.087Z,4.70
2019-03-05T06:59:30.327Z,4.80
2019-03-05T07:02:00.520Z,4.80
2019-03-05T07:04:30.735Z,4.90
2019-03-05T07:07:00.894Z,4.90
2019-03-05T07:09:55.859Z,4.90
2019-03-05T07:12:48.435Z,5.00
2019-03-05T07:15:51.328Z,4.90
2019-03-05T07:18:26.559Z,4.90
2019-03-05T07:21:52.517Z,5.00
2019-03-05T07:24:52.353Z,5.00
2019-03-05T07:27:33.356Z,5.10
2019-03-05T07:30:23.471Z,5.20
2019-03-05T07:32:54.235Z,5.30
2019-03-05T07:35:26.484Z,5.40
2019-03-05T07:37:56.652Z,5.50
2019-03-05T07:40:26.912Z,5.60
2019-03-05T07:42:57.116Z,5.60
2019-03-05T07:45:27.439Z,5.70
2019-03-05T07:47:58.696Z,5.80
2019-03-05T07:50:28.846Z,5.70
2019-03-05T07:52:58.997Z,5.60
2019-03-05T07:55:29.187Z,5.60
2019-03-05T07:57:59.384Z,5.60
2019-03-05T08:00:29.905Z,5.60
2019-03-05T08:03:01.061Z,5.60
2019-03-05T08:05:31.288Z,5.70
2019-03-05T08:08:39.370Z,5.60
2019-03-05T08:11:09.529Z,5.70
2019-03-05T08:14:15.951Z,5.80
2019-03-05T08:16:46.119Z,5.80
2019-03-05T08:19:16.578Z,5.90
2019-03-05T08:21:49.580Z,5.90
2019-03-05T08:24:19.717Z,5.90
2019-03-05T08:26:49.926Z,5.90
2019-03-05T08:29:20.162Z,6.00
2019-03-05T08:31:55.842Z,6.00
2019-03-05T08:34:35.391Z,6.10
2019-03-05T08:37:06.357Z,6.10
2019-03-05T08:39:38.652Z,6.20
2019-03-05T08:42:26.549Z,6.20
2019-03-05T08:45:02.191Z,6.20
2019-03-05T08:47:35.943Z,6.20
2019-03-05T08:50:13.561Z,6.30
2019-03-05T08:52:46.392Z,6.30
2019-03-05T08:55:19.193Z,6.30
2019-03-05T08:57:52.549Z,6.40
2019-03-05T09:00:26.989Z,6.50
2019-03-05T09:03:00.656Z,6.70
2019-03-05T09:05:31.607Z,6.70
2019-03-05T09:08:05.739Z,6.80
2019-03-05T09:10:37.872Z,6.70
2019-03-05T09:13:13.242Z,6.70
2019-03-05T09:15:43.489Z,6.70
2019-03-05T09:18:14.474Z,6.80
2019-03-05T09:20:49.696Z,6.80
2019-03-05T09:23:21.262Z,6.80
2019-03-05T09:25:51.583Z,6.90
2019-03-05T09:28:23.603Z,6.90
2019-03-05T09:31:15.430Z,6.90
2019-03-05T09:33:45.611Z,6.90
2019-03-05T09:36:16.130Z,7.00
2019-03-05T09:38:46.620Z,7.10
2019-03-05T09:41:17.368Z,7.10
2019-03-05T09:43:48.698Z,7.20
2019-03-05T09:46:18.991Z,7.30
2019-03-05T09:48:49.193Z,7.20
2019-03-05T09:51:19.383Z,7.30
2019-03-05T09:53:49.603Z,7.40
2019-03-05T09:56:20.540Z,7.50
2019-03-05T09:58:51.156Z,7.70
2019-03-05T10:01:21.441Z,7.70
2019-03-05T10:03:51.967Z,7.70
2019-03-05T10:06:22.202Z,7.90
2019-03-05T10:08:52.322Z,7.90
2019-03-05T10:11:22.555Z,8.00
2019-03-05T10:13:52.682Z,8.10
2019-03-05T10:16:22.908Z,8.20
2019-03-05T10:18:53.091Z,8.40
2019-03-05T10:21:23.259Z,8.30
2019-03-05T10:23:53.449Z,8.50
2019-03-05T10:26:24.688Z,8.40
2019-03-05T10:28:55.567Z,8.40
2019-03-05T10:31:25.808Z,8.40
2019-03-05T10:33:55.998Z,8.10
2019-03-05T10:36:26.139Z,8.20
2019-03-05T10:38:57.625Z,8.50
2019-03-05T10:41:28.769Z,8.60
2019-03-05T10:43:59.865Z,8.80
2019-03-05T10:46:32.081Z,8.70
2019-03-05T10:49:03.124Z,8.90
2019-03-05T10:51:33.292Z,9.00
2019-03-05T10:54:35.229Z,8.90
2019-03-05T10:57:07.097Z,8.80
2019-03-05T10:59:37.350Z,8.90
2019-03-05T11:02:12.322Z,8.90
2019-03-05T11:04:56.122Z,8.70
2019-03-05T11:07:28.582Z,8.70
2019-03-05T11:10:02.242Z,8.90
2019-03-05T11:12:32.432Z,8.90
2019-03-05T11:15:02.691Z,8.80
2019-03-05T11:17:34.238Z,9.00
2019-03-05T11:20:06.318Z,9.10
2019-03-05T11:22:36.733Z,9.20
2019-03-05T11:25:07.613Z,9.30
2019-03-05T11:27:37.960Z,9.20
2019-03-05T11:30:12.629Z,9.30
2019-03-05T11:32:43.535Z,8.90
2019-03-05T11:35:17.581Z,8.70
2019-03-05T11:37:48.049Z,8.70
2019-03-05T11:40:21.240Z,8.50
2019-03-05T11:42:51.600Z,8.50
2019-03-05T11:45:27.419Z,8.60
2019-03-05T11:47:57.787Z,8.90
2019-03-05T11:50:31.857Z,8.90
2019-03-05T11:53:02.081Z,9.10
2019-03-05T11:55:33.097Z,9.20
2019-03-05T11:58:04.840Z,9.30
2019-03-05T12:00:53.175Z,8.80
2019-03-05T12:03:23.464Z,8.80
2019-03-05T12:05:53.975Z,8.80
2019-03-05T12:08:29.211Z,8.60
2019-03-05T12:10:59.386Z,8.70
2019-03-05T12:13:29.707Z,8.90
2019-03-05T12:16:07.783Z,8.90
2019-03-05T12:18:49.087Z,8.80
2019-03-05T12:21:21.291Z,8.60
2019-03-05T12:23:52.313Z,8.60
2019-03-05T12:26:22.846Z,8.90
2019-03-05T12:28:53.060Z,9.10
2019-03-05T12:31:26.445Z,8.80
2019-03-05T12:33:57.702Z,9.10
2019-03-05T12:36:30.325Z,9.30
2019-03-05T12:39:05.758Z,9.70
2019-03-05T12:41:38.594Z,9.60
2019-03-05T12:44:09.116Z,9.30
2019-03-05T12:46:39.258Z,8.90
2019-03-05T12:49:12.335Z,9.10
2019-03-05T12:51:44.822Z,9.30
2019-03-05T12:54:19.479Z,9.20
2019-03-05T12:56:49.878Z,9.30
2019-03-05T12:59:20.034Z,9.20
2019-03-05T13:01:53.874Z,9.40
2019-03-05T13:04:29.483Z,9.30
2019-03-05T13:07:02.369Z,9.30
2019-03-05T13:09:32.560Z,9.00
2019-03-05T13:17:31.427Z,8.70
2019-03-05T13:20:03.380Z,8.60
2019-03-05T13:22:33.531Z,8.30
2019-03-05T13:25:04.121Z,8.10
2019-03-05T13:27:35.074Z,8.40
2019-03-05T13:30:11.023Z,8.40
2019-03-05T13:35:18.010Z,8.10
2019-03-05T13:37:51.032Z,8.10
2019-03-05T13:40:24.233Z,8.20
2019-03-05T13:42:54.467Z,8.20
2019-03-05T13:45:26.157Z,8.20
2019-03-05T13:48:09.071Z,8.50
2019-03-05T13:51:29.140Z,8.50
2019-03-05T13:54:48.605Z,8.20
2019-03-05T13:58:06.814Z,8.30
2019-03-05T14:00:37.668Z,8.30
2019-03-05T14:03:18.774Z,8.30
2019-03-05T14:06:30.905Z,8.10
2019-03-05T14:09:19.022Z,8.10
2019-03-05T14:11:53.672Z,8.10
2019-03-05T14:14:34.452Z,8.00
2019-03-05T14:17:20.770Z,8.00
2019-03-05T14:19:52.414Z,8.00
2019-03-05T14:22:24.186Z,7.80
2019-03-05T14:25:02.055Z,7.60
2019-03-05T14:27:30.504Z,7.40
2019-03-05T14:30:02.788Z,7.10
2019-03-05T14:32:33.667Z,7.20
2019-03-05T14:35:12.765Z,7.30
2019-03-05T14:37:46.215Z,7.30
2019-03-05T14:40:24.446Z,7.30
2019-03-05T14:42:52.298Z,7.10
2019-03-05T14:45:25.486Z,7.00
2019-03-05T14:47:57.968Z,7.00
2019-03-05T14:50:30.027Z,6.90
2019-03-05T14:53:00.306Z,7.00
2019-03-05T14:55:30.400Z,7.00
2019-03-05T14:58:00.898Z,7.00
2019-03-05T15:00:33.135Z,7.10
2019-03-05T15:03:03.350Z,6.90
2019-03-05T15:05:33.524Z,7.00
2019-03-05T15:08:05.515Z,7.00
2019-03-05T15:10:35.713Z,6.80
2019-03-05T15:13:15.747Z,6.80
2019-03-05T15:15:41.441Z,6.90
2019-03-05T15:18:11.719Z,6.80
2019-03-05T15:20:41.926Z,6.90
2019-03-05T15:23:12.166Z,6.90
2019-03-05T15:25:42.780Z,6.90
2019-03-05T15:28:13.359Z,6.90
2019-03-05T15:30:43.592Z,7.00
2019-03-05T15:33:14.984Z,7.00
2019-03-05T15:35:45.522Z,7.10
2019-03-05T15:38:15.961Z,7.00
2019-03-05T15:40:46.219Z,7.00
2019-03-05T15:43:16.451Z,7.00
2019-03-05T15:45:53.556Z,6.90
2019-03-05T15:48:27.529Z,6.90
2019-03-05T15:50:58.852Z,7.00
2019-03-05T15:53:30.018Z,6.90
2019-03-05T15:56:02.938Z,6.90
2019-03-05T15:58:33.088Z,6.90
2019-03-05T16:01:03.407Z,6.90
2019-03-05T16:03:33.602Z,6.70
2019-03-05T16:06:03.802Z,6.50
2019-03-05T16:08:34.007Z,6.30
2019-03-05T16:11:04.125Z,6.20
2019-03-05T16:13:34.276Z,6.10
2019-03-05T16:16:04.784Z,6.10
2019-03-05T16:18:39.081Z,5.90
2019-03-05T16:21:08.118Z,5.70
2019-03-05T16:23:38.507Z,5.70
2019-03-05T16:26:09.977Z,5.70
2019-03-05T16:28:43.461Z,5.70
2019-03-05T16:31:22.395Z,5.80
2019-03-05T16:34:13.115Z,5.80
2019-03-05T16:37:13.684Z,5.80
2019-03-05T16:40:01.331Z,5.70
2019-03-05T16:42:44.262Z,5.80
2019-03-05T16:45:21.598Z,5.70
2019-03-05T16:48:13.763Z,5.60
2019-03-05T16:51:04.913Z,5.60
2019-03-05T16:54:02.971Z,5.50
2019-03-05T16:56:52.147Z,5.40
2019-03-05T16:59:48.905Z,5.30
2019-03-05T17:02:42.849Z,5.30
2019-03-05T17:05:34.899Z,5.30
2019-03-05T17:08:22.648Z,5.40
2019-03-05T17:11:14.951Z,5.40
2019-03-05T17:13:45.312Z,5.30
2019-03-05T17:16:17.646Z,5.40
2019-03-05T17:18:47.891Z,5.40
2019-03-05T17:21:26.977Z,5.40
2019-03-05T17:23:53.410Z,5.50
2019-03-05T17:26:23.572Z,5.50
2019-03-05T17:28:55.749Z,5.60
2019-03-05T17:31:28.083Z,5.60
2019-03-05T17:33:58.329Z,5.60
2019-03-05T17:36:28.926Z,5.60
2019-03-05T17:39:00.983Z,5.60
2019-03-05T17:41:32.658Z,5.70
2019-03-05T17:44:03.234Z,5.70
2019-03-05T17:46:33.453Z,5.70
2019-03-05T17:49:03.690Z,5.80
2019-03-05T17:51:34.931Z,5.80
2019-03-05T17:54:05.091Z,5.80
2019-03-05T17:56:35.286Z,5.70
2019-03-05T17:59:05.444Z,5.80
2019-03-05T18:01:35.692Z,5.70
2019-03-05T18:04:07.832Z,5.70
2019-03-05T18:06:38.037Z,5.70
2019-03-05T18:09:08.945Z,5.70
2019-03-05T18:11:39.645Z,5.70
2019-03-05T18:14:12.371Z,5.70
2019-03-05T18:16:42.614Z,5.70
2019-03-05T18:19:12.759Z,5.70
2019-03-05T18:21:44.371Z,5.70
2019-03-05T18:24:14.545Z,5.80
2019-03-05T18:26:44.706Z,5.70
2019-03-05T18:29:14.948Z,5.80
2019-03-05T18:31:47.350Z,5.70
2019-03-05T18:34:17.919Z,5.70
2019-03-05T18:36:52.058Z,5.70
2019-03-05T18:39:25.264Z,5.70
2019-03-05T18:41:57.235Z,5.70
2019-03-05T18:44:28.938Z,5.70
2019-03-05T18:47:00.695Z,5.70
2019-03-05T18:49:30.895Z,5.70
2019-03-05T18:54:37.957Z,5.70
2019-03-05T18:57:15.301Z,5.70
2019-03-05T18:59:45.455Z,5.70
2019-03-05T19:02:17.652Z,5.70
2019-03-05T19:04:47.858Z,5.70
2019-03-05T19:07:18.099Z,5.70
2019-03-05T19:09:49.065Z,5.80
2019-03-05T19:12:19.755Z,5.70
2019-03-05T19:14:49.967Z,5.70
2019-03-05T19:17:21.647Z,5.70
2019-03-05T19:19:52.683Z,5.70
2019-03-05T19:22:24.242Z,5.70
2019-03-05T19:24:55.264Z,5.60
2019-03-05T19:27:26.448Z,5.50
2019-03-05T19:29:57.026Z,5.40
2019-03-05T19:32:29.111Z,5.40
2019-03-05T19:34:59.708Z,5.50
2019-03-05T19:37:29.876Z,5.40
2019-03-05T19:40:00.609Z,5.40
2019-03-05T19:42:30.865Z,5.40
2019-03-05T19:45:02.530Z,5.40
2019-03-05T19:47:35.347Z,5.50
2019-03-05T19:50:08.230Z,5.50
2019-03-05T19:52:39.379Z,5.60
2019-03-05T19:55:19.726Z,5.60
2019-03-05T19:57:46.188Z,5.50
2019-03-05T20:00:20.938Z,5.50
2019-03-05T20:02:52.683Z,5.40
2019-03-05T20:05:23.245Z,5.40
2019-03-05T20:07:54.573Z,5.40
2019-03-05T20:10:24.991Z,5.40
2019-03-05T20:12:55.475Z,5.50
2019-03-05T20:15:25.833Z,5.50
2019-03-05T20:17:58.885Z,5.40
2019-03-05T20:20:28.192Z,5.40
2019-03-05T20:22:58.690Z,5.50
2019-03-05T20:25:29.069Z,5.50
2019-03-05T20:27:59.870Z,5.50
2019-03-05T20:30:30.512Z,5.60
2019-03-05T20:33:00.641Z,5.60
2019-03-05T20:35:31.147Z,5.60
2019-03-05T20:38:02.382Z,5.70
2019-03-05T20:40:32.697Z,5.70
2019-03-05T20:43:03.127Z,5.80
2019-03-05T20:45:33.583Z,5.80
2019-03-05T20:48:05.977Z,5.80
2019-03-05T20:50:36.425Z,5.80
2019-03-05T20:53:07.131Z,5.80
2019-03-05T20:55:37.583Z,5.70
2019-03-05T20:58:09.081Z,5.70
2019-03-05T21:00:39.496Z,5.60
2019-03-05T21:03:10.052Z,5.70
2019-03-05T21:05:41.407Z,5.70
2019-03-05T21:08:11.813Z,5.70
2019-03-05T21:10:42.170Z,5.80
2019-03-05T21:13:12.942Z,5.70
2019-03-05T21:15:44.675Z,5.70
2019-03-05T21:18:15.095Z,5.60
2019-03-05T21:20:45.394Z,5.70
2019-03-05T21:23:17.883Z,5.70
2019-03-05T21:25:50.771Z,5.70
2019-03-05T21:28:21.739Z,5.70
2019-03-05T21:30:52.907Z,5.70
2019-03-05T21:33:23.478Z,5.70
2019-03-05T21:35:53.626Z,5.60
2019-03-05T21:38:24.377Z,5.60
2019-03-05T21:40:54.710Z,5.50
2019-03-05T21:43:47.449Z,5.40
2019-03-05T21:46:18.753Z,5.30
2019-03-05T21:48:50.075Z,5.10
2019-03-05T21:51:20.345Z,5.00
2019-03-05T21:53:50.484Z,5.00
2019-03-05T21:56:20.671Z,4.90
2019-03-05T21:58:50.817Z,4.70
2019-03-05T22:01:22.803Z,4.60
2019-03-05T22:03:53.827Z,4.50
2019-03-05T22:06:23.953Z,4.50
2019-03-05T22:08:55.109Z,4.60
2019-03-05T22:11:25.314Z,4.60
2019-03-05T22:13:55.552Z,4.50
2019-03-05T22:16:25.755Z,4.60
2019-03-05T22:18:55.939Z,4.70
2019-03-05T22:21:26.185Z,4.80
2019-03-05T22:23:56.324Z,4.90
2019-03-05T22:26:26.542Z,5.00
2019-03-05T22:28:57.240Z,5.00
2019-03-05T22:31:27.849Z,5.00
2019-03-05T22:33:57.994Z,5.00
2019-03-05T22:36:28.237Z,4.90
2019-03-05T22:38:58.407Z,4.70
2019-03-05T22:41:28.699Z,4.80
2019-03-05T22:44:00.139Z,4.80
2019-03-05T22:46:30.358Z,4.70
2019-03-05T22:49:00.625Z,4.60
2019-03-05T22:51:33.161Z,4.60
2019-03-05T22:54:04.531Z,4.50
2019-03-05T22:56:34.731Z,4.40
2019-03-05T22:59:08.875Z,4.40
2019-03-05T23:01:41.403Z,4.30
2019-03-05T23:04:14.871Z,4.30
2019-03-05T23:06:45.068Z,4.20
2019-03-05T23:09:23.546Z,4.20
2019-03-05T23:11:53.830Z,4.20
2019-03-05T23:14:25.939Z,4.20
2019-03-05T23:16:58.577Z,4.10
2019-03-05T23:19:33.984Z,4.10
2019-03-05T23:22:01.684Z,4.10
2019-03-05T23:24:31.940Z,4.20
2019-03-05T23:27:02.290Z,4.20
2019-03-05T23:29:48.910Z,4.30
2019-03-05T23:32:23.600Z,4.30
2019-03-05T23:34:55.542Z,4.20
2019-03-05T23:37:26.095Z,4.10
2019-03-05T23:39:59.351Z,4.10
2019-03-05T23:42:29.569Z,4.10
2019-03-05T23:45:02.176Z,4.10
2019-03-05T23:47:34.497Z,4.10
2019-03-05T23:50:05.107Z,4.00
2019-03-05T23:52:35.351Z,4.00
2019-03-05T23:55:05.968Z,4.00
2019-03-05T23:57:36.458Z,4.10
